Time;durP1;ratioP1;P1;durP2;ratioP2;P2;SDS_P1;SDS_P2;PMS_P1;PMS_P2;Temp;Humidity;BMP_temperature;BMP_pressure;BME280_temperature;BME280_humidity;BME280_pressure;Samples;Min_cycle;Max_cycle;Signal;HPM_P1;HPM_P2
2021/11/10 00:00:17;;;;;;;0.57;0.55;;;6.40;99.90;;;;;;5054493;28;20195;-79
2021/11/10 00:02:46;;;;;;;0.50;0.40;;;6.40;99.90;;;;;;5054819;28;20198;-77
2021/11/10 00:05:13;;;;;;;0.50;0.40;;;6.40;99.90;;;;;;5054969;28;20207;-80
2021/11/10 00:07:40;;;;;;;1.67;1.35;;;6.30;99.90;;;;;;5055087;28;20198;-80
2021/11/10 00:10:09;;;;;;;0.50;0.40;;;6.30;99.90;;;;;;5054201;28;20656;-78
2021/11/10 00:12:36;;;;;;;0.50;0.40;;;6.40;99.90;;;;;;5054789;28;20195;-78
2021/11/10 00:15:03;;;;;;;0.50;0.40;;;6.30;99.90;;;;;;5054281;28;20204;-77
2021/11/10 00:17:30;;;;;;;0.50;0.40;;;6.30;99.90;;;;;;5054328;28;20199;-79
2021/11/10 00:19:58;;;;;;;0.50;0.40;;;6.30;99.90;;;;;;5055235;28;20195;-77
2021/11/10 00:22:25;;;;;;;0.50;0.50;;;6.30;99.90;;;;;;5055014;28;20583;-77
2021/11/10 00:24:52;;;;;;;0.50;0.40;;;6.20;99.90;;;;;;5054285;28;20191;-78
2021/11/10 00:27:21;;;;;;;0.50;0.40;;;6.20;99.90;;;;;;5054472;28;20615;-77
2021/11/10 00:29:48;;;;;;;0.50;0.40;;;6.20;99.90;;;;;;5054696;28;20199;-78
2021/11/10 00:32:15;;;;;;;0.50;0.40;;;6.20;99.90;;;;;;5054700;28;20199;-78
2021/11/10 00:34:42;;;;;;;1.10;1.02;;;6.20;99.90;;;;;;5054564;28;20245;-77
2021/11/10 00:37:10;;;;;;;0.50;0.40;;;6.10;99.90;;;;;;5054433;28;20227;-78
2021/11/10 00:39:37;;;;;;;0.50;0.40;;;6.00;99.90;;;;;;5054721;28;20195;-79
2021/11/10 00:42:04;;;;;;;0.50;0.40;;;6.00;99.90;;;;;;5054608;28;20201;-78
2021/11/10 00:44:31;;;;;;;0.50;0.40;;;6.00;99.90;;;;;;5055491;28;20202;-81
2021/11/10 00:46:58;;;;;;;0.50;0.40;;;5.90;99.90;;;;;;5059373;28;20233;-78
2021/11/10 00:49:24;;;;;;;0.50;0.40;;;5.90;99.90;;;;;;5059288;28;20652;-77
2021/11/10 00:51:51;;;;;;;0.50;0.40;;;5.80;99.90;;;;;;5058929;28;20221;-80
2021/11/10 00:54:19;;;;;;;0.50;0.40;;;5.70;99.90;;;;;;5058895;28;20214;-77
2021/11/10 00:56:46;;;;;;;0.50;0.40;;;5.70;99.90;;;;;;5058392;28;20226;-79
2021/11/10 00:59:13;;;;;;;1.05;0.90;;;5.70;99.90;;;;;;5057881;28;20195;-77
2021/11/10 01:01:39;;;;;;;0.50;0.40;;;5.70;99.90;;;;;;5058990;28;20198;-77
2021/11/10 01:04:06;;;;;;;0.50;0.40;;;5.70;99.90;;;;;;5058710;28;20194;-78
2021/11/10 01:06:34;;;;;;;0.50;0.40;;;5.60;99.90;;;;;;5058693;28;20309;-77
2021/11/10 01:09:01;;;;;;;0.50;0.40;;;5.50;99.90;;;;;;5059135;28;20198;-79
2021/11/10 01:11:29;;;;;;;0.50;0.40;;;5.40;99.90;;;;;;5057648;28;20711;-77
2021/11/10 01:13:56;;;;;;;0.50;0.40;;;5.30;99.90;;;;;;5059105;28;20219;-79
2021/11/10 01:16:23;;;;;;;0.50;0.40;;;5.40;99.90;;;;;;5059776;28;20221;-78
2021/11/10 01:18:49;;;;;;;0.50;0.40;;;5.40;99.90;;;;;;5060496;28;20245;-80
2021/11/10 01:21:17;;;;;;;0.50;0.40;;;5.40;99.90;;;;;;5059286;28;20194;-79
2021/11/10 01:23:43;;;;;;;0.70;0.70;;;5.40;99.90;;;;;;5059102;28;20198;-79
2021/11/10 01:26:10;;;;;;;0.50;0.43;;;5.50;99.90;;;;;;5059029;28;20222;-77
2021/11/10 01:28:38;;;;;;;0.50;0.40;;;5.40;99.90;;;;;;5059316;28;20281;-77
2021/11/10 01:31:05;;;;;;;2.10;2.00;;;5.50;99.90;;;;;;5059135;28;20200;-75
2021/11/10 01:33:32;;;;;;;0.70;0.50;;;5.50;99.90;;;;;;5059273;28;20225;-82
2021/11/10 01:35:59;;;;;;;0.85;0.85;;;5.50;99.90;;;;;;5059279;28;20233;-76
2021/11/10 01:38:25;;;;;;;0.50;0.40;;;5.50;99.90;;;;;;5065719;28;20281;-78
2021/11/10 01:40:52;;;;;;;0.50;0.40;;;5.50;99.90;;;;;;5058606;28;20190;-80
2021/11/10 01:43:19;;;;;;;0.50;0.40;;;5.40;99.90;;;;;;5058183;28;20187;-77
2021/11/10 01:45:48;;;;;;;0.50;0.40;;;5.40;99.90;;;;;;5057787;28;20220;-80
2021/11/10 01:48:15;;;;;;;0.50;0.40;;;5.40;99.90;;;;;;5057300;28;20200;-80
2021/11/10 01:50:42;;;;;;;0.50;0.40;;;5.40;99.90;;;;;;5057652;28;20560;-77
2021/11/10 01:53:11;;;;;;;0.63;0.63;;;5.40;99.90;;;;;;5057677;28;20199;-80
2021/11/10 01:55:38;;;;;;;0.50;0.40;;;5.40;99.90;;;;;;5057279;28;20225;-79
2021/11/10 01:58:05;;;;;;;0.50;0.40;;;5.40;99.90;;;;;;5057297;28;20201;-77
2021/11/10 02:00:33;;;;;;;0.50;0.40;;;5.30;99.90;;;;;;5057316;28;20544;-79
2021/11/10 02:03:02;;;;;;;0.50;0.40;;;5.30;99.90;;;;;;5057563;28;20201;-77
2021/11/10 02:05:29;;;;;;;0.50;0.40;;;5.30;99.90;;;;;;5056551;28;20385;-77
2021/11/10 02:07:56;;;;;;;0.50;0.40;;;5.30;99.90;;;;;;5057335;28;20191;-79
2021/11/10 02:10:25;;;;;;;0.73;0.73;;;5.40;99.90;;;;;;5056700;28;20202;-77
2021/11/10 02:12:52;;;;;;;0.52;0.40;;;5.50;99.90;;;;;;5056505;28;20194;-78
2021/11/10 02:15:20;;;;;;;0.50;0.40;;;5.60;99.90;;;;;;5057641;28;20224;-80
2021/11/10 02:17:48;;;;;;;0.50;0.40;;;5.60;99.90;;;;;;5057360;28;20201;-79
2021/11/10 02:20:16;;;;;;;0.50;0.40;;;5.50;99.90;;;;;;5056370;28;20199;-80
2021/11/10 02:22:46;;;;;;;0.50;0.40;;;5.60;99.90;;;;;;5057909;28;20210;-77
2021/11/10 02:25:14;;;;;;;2.25;1.35;;;5.60;99.90;;;;;;5056636;28;20545;-78
2021/11/10 02:27:42;;;;;;;0.50;0.40;;;5.70;99.90;;;;;;5061579;28;20217;-80
2021/11/10 02:30:11;;;;;;;0.50;0.40;;;5.60;99.90;;;;;;5060600;28;20194;-77
2021/11/10 02:32:38;;;;;;;0.60;0.60;;;5.60;99.90;;;;;;5061592;28;20201;-81
2021/11/10 02:35:06;;;;;;;0.50;0.40;;;5.70;99.90;;;;;;5060024;28;20222;-78
2021/11/10 02:37:35;;;;;;;0.50;0.40;;;5.70;99.90;;;;;;5058817;28;20207;-78
2021/11/10 02:40:04;;;;;;;0.68;0.68;;;5.70;99.90;;;;;;5059386;28;20241;-78
2021/11/10 02:42:31;;;;;;;0.50;0.40;;;5.60;99.90;;;;;;5059489;28;20201;-78
2021/11/10 02:44:58;;;;;;;0.50;0.40;;;5.60;99.90;;;;;;5059296;28;20533;-76
2021/11/10 02:47:25;;;;;;;0.50;0.40;;;5.60;99.90;;;;;;5059548;28;20209;-79
2021/11/10 02:49:51;;;;;;;0.50;0.40;;;5.60;99.90;;;;;;5059768;28;20206;-78
2021/11/10 02:52:20;;;;;;;0.50;0.40;;;5.50;99.90;;;;;;5059427;28;20194;-79
2021/11/10 02:54:50;;;;;;;1.80;1.70;;;5.40;99.90;;;;;;5059319;28;20214;-81
2021/11/10 02:57:18;;;;;;;0.50;0.40;;;5.40;99.90;;;;;;5059304;28;20218;-79
2021/11/10 02:59:45;;;;;;;0.50;0.40;;;5.50;99.90;;;;;;5060206;28;20567;-81
2021/11/10 03:02:13;;;;;;;0.50;0.40;;;5.50;99.90;;;;;;5060208;28;20667;-79
2021/11/10 03:04:44;;;;;;;0.50;0.50;;;5.50;99.90;;;;;;5059208;28;20194;-82
2021/11/10 03:07:11;;;;;;;0.50;0.40;;;5.40;99.90;;;;;;5058772;28;20620;-78
2021/11/10 03:09:38;;;;;;;0.90;0.90;;;5.40;99.90;;;;;;5058256;28;20198;-81
2021/11/10 03:12:07;;;;;;;1.10;1.05;;;5.40;99.90;;;;;;5059171;28;20221;-78
2021/11/10 03:14:37;;;;;;;0.50;0.40;;;5.40;99.90;;;;;;5058793;28;20211;-79
2021/11/10 03:17:06;;;;;;;1.38;1.13;;;5.40;99.90;;;;;;5058480;28;20217;-78
2021/11/10 03:19:33;;;;;;;0.50;0.40;;;5.40;99.90;;;;;;5058487;28;20241;-82
2021/11/10 03:22:00;;;;;;;0.70;0.70;;;5.40;99.90;;;;;;5057941;28;20666;-78
2021/11/10 03:24:27;;;;;;;0.50;0.50;;;5.40;99.90;;;;;;5058312;28;20187;-78
2021/11/10 03:26:53;;;;;;;2.25;2.15;;;5.50;99.90;;;;;;5058450;28;20222;-79
2021/11/10 03:29:21;;;;;;;0.50;0.40;;;5.60;99.90;;;;;;5058096;28;20195;-78
2021/11/10 03:31:49;;;;;;;2.75;2.25;;;5.60;99.90;;;;;;5058011;28;20203;-81
2021/11/10 03:34:16;;;;;;;1.23;0.88;;;5.50;99.90;;;;;;5058393;28;20226;-80
2021/11/10 03:36:43;;;;;;;0.73;0.55;;;5.60;99.90;;;;;;5058855;28;20223;-79
2021/11/10 03:39:12;;;;;;;0.50;0.40;;;5.50;99.90;;;;;;5058946;28;20202;-79
2021/11/10 03:41:39;;;;;;;1.40;1.30;;;5.50;99.90;;;;;;5057923;28;20202;-79
2021/11/10 03:44:06;;;;;;;0.88;0.88;;;5.60;99.90;;;;;;5059219;28;20687;-80
2021/11/10 03:46:34;;;;;;;0.70;0.60;;;5.60;99.90;;;;;;5058746;28;20251;-78
2021/11/10 03:49:02;;;;;;;0.50;0.40;;;5.60;99.90;;;;;;5058533;28;20553;-80
2021/11/10 03:51:29;;;;;;;2.78;1.58;;;5.60;99.90;;;;;;5058007;28;20221;-79
2021/11/10 03:53:57;;;;;;;0.50;0.40;;;5.60;99.90;;;;;;5059164;28;20201;-78
2021/11/10 03:56:24;;;;;;;2.55;0.93;;;5.60;99.90;;;;;;5058864;28;20215;-79
2021/11/10 03:58:51;;;;;;;0.65;0.63;;;5.60;99.90;;;;;;5057909;28;20199;-78
2021/11/10 04:01:18;;;;;;;0.68;0.68;;;5.60;99.90;;;;;;5058049;28;20221;-80
2021/11/10 04:03:45;;;;;;;0.50;0.40;;;5.60;99.90;;;;;;5059155;28;20191;-79
2021/11/10 04:06:13;;;;;;;1.30;1.13;;;5.60;99.90;;;;;;5058745;28;20607;-83
2021/11/10 04:08:40;;;;;;;0.65;0.63;;;5.70;99.90;;;;;;5059222;28;20281;-80
2021/11/10 04:11:07;;;;;;;1.75;1.65;;;5.60;99.90;;;;;;5057417;28;20217;-76
2021/11/10 04:13:34;;;;;;;0.60;0.40;;;5.60;99.90;;;;;;5058836;28;20191;-78
2021/11/10 04:16:02;;;;;;;5.97;2.10;;;5.50;99.90;;;;;;5057802;28;20221;-78
2021/11/10 04:18:33;;;;;;;2.05;1.60;;;5.50;99.90;;;;;;5054792;28;20698;-78
2021/11/10 04:21:00;;;;;;;0.50;0.40;;;5.60;99.90;;;;;;5053328;28;20240;-78
2021/11/10 04:23:30;;;;;;;0.80;0.80;;;5.60;99.90;;;;;;5053270;28;20198;-78
2021/11/10 04:25:57;;;;;;;0.57;0.55;;;5.60;99.90;;;;;;5053375;28;20655;-79
2021/11/10 04:28:24;;;;;;;0.50;0.50;;;5.60;99.90;;;;;;5053445;28;20222;-78
2021/11/10 04:30:53;;;;;;;1.42;1.00;;;5.60;99.90;;;;;;5053108;28;20285;-78
2021/11/10 04:33:20;;;;;;;0.60;0.50;;;5.60;99.90;;;;;;5054017;28;20241;-78
2021/11/10 04:35:48;;;;;;;1.27;1.27;;;5.60;99.90;;;;;;5052975;28;20229;-79
2021/11/10 04:38:15;;;;;;;0.60;0.60;;;5.50;99.90;;;;;;5052946;28;20199;-78
2021/11/10 04:40:44;;;;;;;0.50;0.40;;;5.50;99.90;;;;;;5052508;28;20202;-78
2021/11/10 04:43:11;;;;;;;6.65;4.82;;;5.50;99.90;;;;;;5052196;28;20275;-77
2021/11/10 04:45:39;;;;;;;1.00;0.70;;;5.50;99.90;;;;;;5052739;28;20211;-81
2021/11/10 04:48:06;;;;;;;4.97;0.98;;;5.50;99.90;;;;;;5052328;28;20203;-78
2021/11/10 04:50:34;;;;;;;1.70;0.70;;;5.50;99.90;;;;;;5051980;28;20238;-77
2021/11/10 04:53:02;;;;;;;1.50;0.85;;;5.50;99.90;;;;;;5052453;28;20627;-79
2021/11/10 04:55:29;;;;;;;0.50;0.50;;;5.40;99.90;;;;;;5052763;28;20331;-79
2021/11/10 04:57:58;;;;;;;1.00;0.90;;;5.40;99.90;;;;;;5052331;28;20680;-79
2021/11/10 05:00:25;;;;;;;0.63;0.50;;;5.40;99.90;;;;;;5052768;28;20198;-78
2021/11/10 05:02:52;;;;;;;0.93;0.93;;;5.40;99.90;;;;;;5052760;28;20549;-78
2021/11/10 05:05:19;;;;;;;0.80;0.80;;;5.30;99.90;;;;;;5052386;28;20596;-78
2021/11/10 05:07:47;;;;;;;0.60;0.60;;;5.30;99.90;;;;;;5052479;28;20237;-78
2021/11/10 05:10:14;;;;;;;1.77;0.88;;;5.40;99.90;;;;;;5052228;28;20560;-79
2021/11/10 05:12:41;;;;;;;0.50;0.43;;;5.40;99.90;;;;;;5051806;28;20933;-78
2021/11/10 05:15:11;;;;;;;0.55;0.55;;;5.30;99.90;;;;;;5051829;28;20254;-79
2021/11/10 05:17:38;;;;;;;0.50;0.50;;;5.40;99.90;;;;;;5051989;28;20204;-77
2021/11/10 05:20:05;;;;;;;3.05;2.85;;;5.40;99.90;;;;;;5051606;28;20194;-78
2021/11/10 05:22:33;;;;;;;1.50;1.15;;;5.40;99.90;;;;;;5052356;28;20201;-79
2021/11/10 05:25:00;;;;;;;2.88;2.38;;;5.40;99.90;;;;;;5052313;28;20236;-78
2021/11/10 05:27:27;;;;;;;0.68;0.68;;;5.40;99.90;;;;;;5052369;28;20201;-79
2021/11/10 05:29:54;;;;;;;0.70;0.70;;;5.30;99.90;;;;;;5046719;28;20194;-77
2021/11/10 05:32:23;;;;;;;0.60;0.60;;;5.30;99.90;;;;;;5047256;28;20661;-79
2021/11/10 05:34:50;;;;;;;3.65;3.40;;;5.30;99.90;;;;;;5055738;28;20237;-78
2021/11/10 05:37:18;;;;;;;2.00;1.77;;;5.30;99.90;;;;;;5055417;28;20754;-79
2021/11/10 05:39:45;;;;;;;0.50;0.40;;;5.30;99.90;;;;;;5056008;28;20202;-79
2021/11/10 05:42:11;;;;;;;0.50;0.40;;;5.30;99.90;;;;;;5055948;28;20199;-79
2021/11/10 05:44:38;;;;;;;1.33;1.23;;;5.20;99.90;;;;;;5054825;28;20663;-78
2021/11/10 05:47:05;;;;;;;0.70;0.70;;;5.20;99.90;;;;;;5055766;28;20214;-79
2021/11/10 05:49:33;;;;;;;0.82;0.82;;;5.20;99.90;;;;;;5055893;28;20195;-78
2021/11/10 05:52:00;;;;;;;0.50;0.50;;;5.20;99.90;;;;;;5055510;28;20191;-78
2021/11/10 05:54:27;;;;;;;2.75;2.55;;;5.10;99.90;;;;;;5055378;28;20277;-79
2021/11/10 05:56:54;;;;;;;5.25;1.45;;;5.10;99.90;;;;;;5055565;28;20218;-81
2021/11/10 05:59:21;;;;;;;2.80;1.63;;;5.10;99.90;;;;;;5055450;28;20664;-79
2021/11/10 06:01:48;;;;;;;0.70;0.70;;;5.00;99.90;;;;;;5055066;28;20198;-78
2021/11/10 06:04:15;;;;;;;0.80;0.73;;;5.00;99.90;;;;;;5055651;28;20195;-80
2021/11/10 06:06:43;;;;;;;0.50;0.40;;;4.90;99.90;;;;;;5056026;28;20206;-80
2021/11/10 06:09:10;;;;;;;0.60;0.57;;;4.90;99.90;;;;;;5055868;28;20202;-79
2021/11/10 06:11:37;;;;;;;1.98;1.05;;;4.90;99.90;;;;;;5055476;28;20195;-79
2021/11/10 06:14:03;;;;;;;0.80;0.80;;;4.90;99.90;;;;;;5054883;28;20207;-80
2021/11/10 06:16:30;;;;;;;1.25;1.25;;;4.90;99.90;;;;;;5054957;28;20253;-79
2021/11/10 06:18:57;;;;;;;0.50;0.50;;;4.90;99.90;;;;;;5055054;28;20196;-78
2021/11/10 06:21:24;;;;;;;0.50;0.50;;;5.00;99.90;;;;;;5055660;28;20202;-79
2021/11/10 06:23:52;;;;;;;0.50;0.40;;;5.00;99.90;;;;;;5057570;28;20297;-78
2021/11/10 06:26:19;;;;;;;0.50;0.40;;;4.90;99.90;;;;;;5059520;28;20596;-79
2021/11/10 06:28:45;;;;;;;2.45;0.95;;;4.90;99.90;;;;;;5058831;28;20560;-78
2021/11/10 06:31:12;;;;;;;1.95;1.85;;;4.80;99.90;;;;;;5055838;28;20201;-78
2021/11/10 06:33:39;;;;;;;0.50;0.50;;;4.80;99.90;;;;;;5057717;28;20589;-78
2021/11/10 06:36:06;;;;;;;0.60;0.60;;;4.80;99.90;;;;;;5057124;28;20222;-79
2021/11/10 06:38:33;;;;;;;0.70;0.60;;;4.80;99.90;;;;;;5056487;28;20270;-79
2021/11/10 06:41:02;;;;;;;0.50;0.50;;;4.80;99.90;;;;;;5055372;28;20201;-78
2021/11/10 06:43:28;;;;;;;0.50;0.40;;;4.90;99.90;;;;;;5053218;28;20203;-78
2021/11/10 06:45:56;;;;;;;0.50;0.40;;;4.90;99.90;;;;;;5053146;28;20757;-79
2021/11/10 06:48:23;;;;;;;1.50;1.40;;;4.90;99.90;;;;;;5053405;28;20259;-78
2021/11/10 06:50:50;;;;;;;1.13;1.13;;;5.00;99.90;;;;;;5053327;28;20191;-79
2021/11/10 06:53:17;;;;;;;0.50;0.40;;;5.00;99.90;;;;;;5052564;28;20206;-78
2021/11/10 06:55:44;;;;;;;1.02;0.93;;;5.00;99.90;;;;;;5051425;28;20614;-78
2021/11/10 06:58:12;;;;;;;0.50;0.40;;;5.10;99.90;;;;;;5051181;28;20210;-76
2021/11/10 07:00:39;;;;;;;0.50;0.40;;;5.10;99.90;;;;;;5052449;28;20195;-77
2021/11/10 07:03:06;;;;;;;0.65;0.65;;;5.00;99.90;;;;;;5052333;28;20205;-77
2021/11/10 07:05:33;;;;;;;0.50;0.40;;;5.10;99.90;;;;;;5053207;28;20219;-77
2021/11/10 07:08:00;;;;;;;0.50;0.40;;;5.10;99.90;;;;;;5053762;28;20191;-76
2021/11/10 07:10:27;;;;;;;0.50;0.40;;;5.00;99.90;;;;;;5052349;28;20195;-78
2021/11/10 07:12:54;;;;;;;0.50;0.40;;;5.00;99.90;;;;;;5052137;28;20195;-78
2021/11/10 07:15:24;;;;;;;0.50;0.40;;;4.90;99.90;;;;;;5052727;28;20234;-77
2021/11/10 07:17:51;;;;;;;0.50;0.40;;;4.90;99.90;;;;;;5053673;28;20198;-78
2021/11/10 07:20:18;;;;;;;0.50;0.40;;;4.80;99.90;;;;;;5052822;28;20201;-79
2021/11/10 07:22:44;;;;;;;0.50;0.40;;;4.80;99.90;;;;;;5053107;28;20198;-76
2021/11/10 07:25:12;;;;;;;0.50;0.50;;;4.70;99.90;;;;;;5052474;28;20207;-78
2021/11/10 07:27:39;;;;;;;0.50;0.40;;;4.70;99.90;;;;;;5053203;28;20568;-77
2021/11/10 07:30:11;;;;;;;0.50;0.40;;;4.70;99.90;;;;;;5052247;28;20199;-76
2021/11/10 07:32:40;;;;;;;0.50;0.40;;;4.60;99.90;;;;;;5052566;28;20190;-78
2021/11/10 07:35:08;;;;;;;0.50;0.40;;;4.60;99.90;;;;;;5052541;28;20199;-76
2021/11/10 07:37:35;;;;;;;0.50;0.40;;;4.70;99.90;;;;;;5053307;28;20191;-76
2021/11/10 07:40:03;;;;;;;0.50;0.40;;;4.80;99.90;;;;;;5052059;28;20195;-79
2021/11/10 07:42:29;;;;;;;0.50;0.40;;;4.80;99.90;;;;;;5053353;28;20202;-77
2021/11/10 07:45:05;;;;;;;0.50;0.40;;;4.90;99.90;;;;;;5053162;28;20194;-75
2021/11/10 07:47:40;;;;;;;0.50;0.45;;;5.00;99.90;;;;;;5053048;28;20182;-80
2021/11/10 07:50:12;;;;;;;0.50;0.40;;;5.10;99.90;;;;;;5042711;28;20186;-75
2021/11/10 07:52:40;;;;;;;0.50;0.40;;;5.30;99.90;;;;;;5052431;28;20197;-76
2021/11/10 07:55:07;;;;;;;0.50;0.40;;;5.40;99.90;;;;;;5051010;28;20217;-77
2021/11/10 07:57:35;;;;;;;0.50;0.40;;;5.40;99.90;;;;;;5043014;28;20258;-77
2021/11/10 08:00:04;;;;;;;0.50;0.40;;;5.50;99.90;;;;;;5046472;28;20196;-78
2021/11/10 08:02:31;;;;;;;0.50;0.40;;;5.70;99.90;;;;;;5051792;28;20198;-76
2021/11/10 08:04:58;;;;;;;0.50;0.40;;;6.00;99.90;;;;;;5051977;28;20850;-76
2021/11/10 08:07:26;;;;;;;0.50;0.40;;;6.30;99.90;;;;;;5051750;28;20216;-78
2021/11/10 08:09:53;;;;;;;0.50;0.40;;;6.70;99.90;;;;;;5051068;28;20203;-77
2021/11/10 08:12:20;;;;;;;0.50;0.40;;;7.10;99.90;;;;;;5050928;28;20193;-77
2021/11/10 08:14:47;;;;;;;0.50;0.40;;;7.30;99.90;;;;;;5051601;28;20193;-79
2021/11/10 08:17:14;;;;;;;0.50;0.40;;;7.40;99.90;;;;;;5051313;28;20223;-77
2021/11/10 08:19:40;;;;;;;0.50;0.40;;;7.40;99.90;;;;;;5052003;28;20206;-76
2021/11/10 08:22:07;;;;;;;0.50;0.40;;;7.50;99.90;;;;;;5051486;28;20197;-79
2021/11/10 08:24:35;;;;;;;2.17;0.93;;;7.60;99.90;;;;;;5051814;28;20198;-77
2021/11/10 08:27:02;;;;;;;0.95;0.77;;;7.70;99.90;;;;;;5051426;28;20235;-76
2021/11/10 08:29:29;;;;;;;1.35;1.25;;;7.90;99.90;;;;;;5050933;28;20612;-77
2021/11/10 08:31:56;;;;;;;0.50;0.40;;;8.20;99.90;;;;;;5051296;28;20560;-77
2021/11/10 08:34:23;;;;;;;1.75;1.65;;;8.70;99.90;;;;;;5052049;28;20199;-76
2021/11/10 08:36:50;;;;;;;0.82;0.50;;;9.50;99.90;;;;;;5051064;28;20228;-76
2021/11/10 08:39:17;;;;;;;0.50;0.50;;;10.60;99.90;;;;;;5051223;28;20196;-77
2021/11/10 08:41:47;;;;;;;3.90;2.50;;;11.60;99.90;;;;;;5051615;28;20198;-76
2021/11/10 08:44:15;;;;;;;0.50;0.40;;;12.60;99.90;;;;;;5051553;28;20206;-74
2021/11/10 08:46:42;;;;;;;0.50;0.43;;;13.60;99.90;;;;;;5051819;28;20453;-76
2021/11/10 08:49:09;;;;;;;0.50;0.40;;;14.40;99.90;;;;;;5050911;28;20811;-79
2021/11/10 08:51:37;;;;;;;0.63;0.60;;;15.00;99.90;;;;;;5050746;28;20441;-78
2021/11/10 08:54:04;;;;;;;1.27;1.27;;;15.30;98.20;;;;;;5050991;28;20950;-77
2021/11/10 08:56:32;;;;;;;0.50;0.40;;;14.60;99.90;;;;;;5044265;28;20487;-80
2021/11/10 08:59:01;;;;;;;0.50;0.40;;;14.20;99.90;;;;;;5052188;28;20818;-78
2021/11/10 09:01:28;;;;;;;0.60;0.50;;;14.00;99.90;;;;;;5049443;28;20444;-79
2021/11/10 09:03:55;;;;;;;0.50;0.47;;;13.80;99.90;;;;;;5050060;28;20441;-78
2021/11/10 09:06:22;;;;;;;0.70;0.70;;;14.00;99.90;;;;;;5052260;28;20461;-79
2021/11/10 09:08:49;;;;;;;0.50;0.40;;;14.20;99.90;;;;;;5053493;28;20524;-78
2021/11/10 09:11:15;;;;;;;0.50;0.40;;;13.50;99.90;;;;;;5053934;28;20437;-77
2021/11/10 09:13:42;;;;;;;0.50;0.40;;;13.00;99.90;;;;;;5053907;28;20946;-78
2021/11/10 09:16:11;;;;;;;0.50;0.40;;;12.80;99.90;;;;;;5056389;28;20496;-78
2021/11/10 09:18:38;;;;;;;5.33;2.10;;;12.70;99.90;;;;;;5056027;28;20437;-78
2021/11/10 09:21:06;;;;;;;0.50;0.40;;;12.70;99.90;;;;;;5055877;28;20448;-77
2021/11/10 09:23:32;;;;;;;1.13;0.70;;;12.60;99.90;;;;;;5056101;28;20485;-79
2021/11/10 09:25:59;;;;;;;0.50;0.40;;;12.40;99.90;;;;;;5056281;28;20455;-78
2021/11/10 09:28:27;;;;;;;0.90;0.90;;;12.20;99.90;;;;;;5055795;28;20818;-77
2021/11/10 09:30:54;;;;;;;0.90;0.90;;;12.20;99.90;;;;;;5057179;28;20448;-78
2021/11/10 09:33:25;;;;;;;8.23;3.40;;;12.10;99.90;;;;;;5056122;28;20437;-80
2021/11/10 09:35:53;;;;;;;0.50;0.40;;;11.70;99.90;;;;;;5055306;28;20688;-80
2021/11/10 09:38:22;;;;;;;0.50;0.40;;;11.30;99.90;;;;;;5056719;28;20571;-78
2021/11/10 09:40:50;;;;;;;0.60;0.45;;;11.00;99.90;;;;;;5055267;28;20251;-77
2021/11/10 09:43:18;;;;;;;0.60;0.50;;;10.90;99.90;;;;;;5055120;28;20217;-77
2021/11/10 09:45:47;;;;;;;0.77;0.77;;;10.70;99.90;;;;;;5055288;28;20309;-78
2021/11/10 09:48:14;;;;;;;0.75;0.70;;;10.40;99.90;;;;;;5055662;28;20197;-78
2021/11/10 09:50:45;;;;;;;5.80;1.95;;;10.20;99.90;;;;;;5053986;28;20280;-76
2021/11/10 09:53:13;;;;;;;0.50;0.45;;;10.10;99.90;;;;;;5055327;28;20641;-77
2021/11/10 09:55:40;;;;;;;0.50;0.50;;;9.80;99.90;;;;;;5055743;28;20726;-78
2021/11/10 09:58:08;;;;;;;0.70;0.70;;;9.70;99.90;;;;;;5056414;28;20212;-77
2021/11/10 10:00:38;;;;;;;0.50;0.40;;;9.90;99.90;;;;;;5056113;28;20207;-79
2021/11/10 10:03:05;;;;;;;0.50;0.50;;;10.10;99.90;;;;;;5056038;28;20553;-79
2021/11/10 10:05:33;;;;;;;0.50;0.40;;;10.30;99.90;;;;;;5056098;28;20221;-79
2021/11/10 10:08:04;;;;;;;1.73;1.67;;;10.70;99.90;;;;;;5056954;28;20191;-78
2021/11/10 10:10:33;;;;;;;0.50;0.40;;;10.80;99.90;;;;;;5055807;28;20195;-79
2021/11/10 10:13:02;;;;;;;0.50;0.40;;;10.70;99.90;;;;;;5055670;28;20253;-78
2021/11/10 10:15:32;;;;;;;0.50;0.40;;;10.60;99.90;;;;;;5055677;28;20547;-79
2021/11/10 10:17:59;;;;;;;0.90;0.90;;;10.80;99.90;;;;;;5055696;28;20595;-79
2021/11/10 10:20:30;;;;;;;7.00;2.38;;;10.90;99.90;;;;;;5055875;28;20198;-79
2021/11/10 10:22:58;;;;;;;0.60;0.60;;;11.10;99.90;;;;;;5056526;28;20181;-79
2021/11/10 10:25:39;;;;;;;1.48;1.38;;;11.20;99.90;;;;;;5055717;28;20221;-78
2021/11/10 10:28:06;;;;;;;0.50;0.40;;;11.20;99.90;;;;;;5055684;28;20568;-77
2021/11/10 10:30:35;;;;;;;0.85;0.85;;;11.80;99.90;;;;;;5058175;28;20194;-78
2021/11/10 10:33:08;;;;;;;2.50;2.40;;;12.20;99.90;;;;;;5057917;28;20567;-79
2021/11/10 10:35:39;;;;;;;0.50;0.40;;;12.50;99.90;;;;;;5054648;28;20473;-79
2021/11/10 10:38:07;;;;;;;1.43;1.33;;;13.20;99.90;;;;;;5056322;28;20503;-79
2021/11/10 10:40:37;;;;;;;1.10;0.80;;;13.70;99.90;;;;;;5054840;28;20452;-78
2021/11/10 10:43:05;;;;;;;0.90;0.80;;;13.30;99.90;;;;;;5054900;28;20879;-78
2021/11/10 10:45:38;;;;;;;1.17;0.67;;;12.90;99.90;;;;;;5055316;28;20469;-79
2021/11/10 10:48:08;;;;;;;0.60;0.60;;;13.00;99.90;;;;;;5055465;28;20437;-79
2021/11/10 10:50:41;;;;;;;5.60;0.87;;;12.90;99.90;;;;;;5053823;28;20437;-79
2021/11/10 10:53:09;;;;;;;0.93;0.93;;;12.80;99.90;;;;;;5055933;28;20468;-79
2021/11/10 10:55:39;;;;;;;0.50;0.37;;;12.70;99.90;;;;;;5056118;28;20465;-78
2021/11/10 10:58:11;;;;;;;1.20;1.10;;;12.80;99.90;;;;;;5055837;28;20467;-78
2021/11/10 11:00:39;;;;;;;1.57;1.47;;;12.70;99.90;;;;;;5055096;28;20437;-79
2021/11/10 11:03:32;;;;;;;1.30;1.00;;;12.20;99.90;;;;;;5055438;28;20487;-78
2021/11/10 11:05:59;;;;;;;0.50;0.50;;;12.00;99.90;;;;;;5054199;28;20487;-79
2021/11/10 11:08:36;;;;;;;0.50;0.40;;;12.10;99.90;;;;;;5055260;28;20251;-78
2021/11/10 11:11:20;;;;;;;1.37;1.23;;;12.10;99.90;;;;;;5053668;28;20476;-78
2021/11/10 11:13:48;;;;;;;0.70;0.68;;;11.80;99.90;;;;;;5054095;28;20791;-77
2021/11/10 11:16:18;;;;;;;1.15;1.08;;;11.40;99.90;;;;;;5053059;28;20219;-77
2021/11/10 11:18:45;;;;;;;1.52;1.48;;;11.30;99.90;;;;;;5053330;28;20198;-77
2021/11/10 11:21:26;;;;;;;0.50;0.40;;;11.10;99.90;;;;;;5052738;28;20257;-77
2021/11/10 11:23:54;;;;;;;1.50;1.50;;;11.10;99.90;;;;;;5053678;28;20579;-77
2021/11/10 11:26:33;;;;;;;0.50;0.40;;;11.20;99.90;;;;;;5053586;28;20214;-77
2021/11/10 11:29:00;;;;;;;0.73;0.73;;;11.40;99.90;;;;;;5052467;28;20216;-77
2021/11/10 11:31:35;;;;;;;1.08;1.08;;;11.60;99.90;;;;;;5053065;28;20210;-77
2021/11/10 11:34:04;;;;;;;0.60;0.60;;;11.80;99.90;;;;;;5053307;28;20198;-78
2021/11/10 11:36:54;;;;;;;0.50;0.40;;;12.00;99.90;;;;;;5052692;28;20977;-78
2021/11/10 11:39:23;;;;;;;2.58;1.95;;;12.00;99.90;;;;;;5048897;28;20199;-78
2021/11/10 11:41:52;;;;;;;0.60;0.60;;;12.20;99.90;;;;;;5052631;28;20198;-77
2021/11/10 11:44:20;;;;;;;1.17;1.07;;;12.20;99.90;;;;;;5053069;28;20437;-77
2021/11/10 11:46:49;;;;;;;0.80;0.80;;;11.90;99.90;;;;;;5052269;28;20453;-78
2021/11/10 11:49:16;;;;;;;0.60;0.60;;;11.70;99.90;;;;;;5053348;28;20437;-77
2021/11/10 11:51:45;;;;;;;0.77;0.77;;;11.70;99.90;;;;;;5051847;28;20198;-76
2021/11/10 11:54:13;;;;;;;2.25;2.15;;;11.50;99.90;;;;;;5052666;28;20437;-77
2021/11/10 11:56:41;;;;;;;1.85;0.90;;;11.40;99.90;;;;;;5052113;28;20240;-77
2021/11/10 11:59:11;;;;;;;0.80;0.80;;;11.20;99.90;;;;;;5052341;28;20201;-74
2021/11/10 12:01:38;;;;;;;3.55;1.38;;;11.10;99.90;;;;;;5052807;28;20345;-76
2021/11/10 12:04:11;;;;;;;0.60;0.50;;;11.20;99.90;;;;;;5052184;28;20226;-77
2021/11/10 12:06:47;;;;;;;0.50;0.40;;;11.40;99.90;;;;;;5052339;28;20214;-78
2021/11/10 12:09:18;;;;;;;1.55;0.70;;;11.60;99.90;;;;;;5052080;28;20783;-77
2021/11/10 12:11:51;;;;;;;1.55;1.38;;;11.30;99.90;;;;;;5051646;28;20183;-77
2021/11/10 12:14:21;;;;;;;0.50;0.40;;;11.10;99.90;;;;;;5052920;28;20202;-77
2021/11/10 12:16:53;;;;;;;8.98;1.20;;;11.10;99.90;;;;;;5051964;28;20469;-78
2021/11/10 12:19:23;;;;;;;10.77;4.15;;;11.10;99.90;;;;;;5052080;28;20199;-77
2021/11/10 12:21:53;;;;;;;0.82;0.70;;;11.10;99.90;;;;;;5051991;28;20201;-77
2021/11/10 12:24:30;;;;;;;0.60;0.60;;;11.00;99.90;;;;;;5052058;28;20195;-77
2021/11/10 12:27:10;;;;;;;0.50;0.40;;;11.00;99.90;;;;;;5051912;28;20211;-78
2021/11/10 12:30:00;;;;;;;0.60;0.50;;;11.00;99.90;;;;;;5052507;28;20201;-77
2021/11/10 12:32:53;;;;;;;4.20;2.60;;;11.00;99.90;;;;;;5052182;28;20565;-76
2021/11/10 12:35:23;;;;;;;0.50;0.40;;;10.90;99.90;;;;;;5051768;28;20214;-75
2021/11/10 12:37:52;;;;;;;0.50;0.40;;;10.90;99.90;;;;;;5052096;28;20237;-77
2021/11/10 12:40:22;;;;;;;0.50;0.40;;;11.00;99.90;;;;;;5051283;28;20198;-78
2021/11/10 12:42:55;;;;;;;0.50;0.40;;;11.10;99.90;;;;;;5051993;28;20535;-77
2021/11/10 12:45:30;;;;;;;0.50;0.40;;;11.20;99.90;;;;;;5052155;28;20205;-78
2021/11/10 12:48:00;;;;;;;0.50;0.40;;;11.30;99.90;;;;;;5051419;28;20424;-77
2021/11/10 12:50:39;;;;;;;0.50;0.40;;;11.50;99.90;;;;;;5052448;28;20195;-77
2021/11/10 12:53:11;;;;;;;0.50;0.40;;;11.60;99.90;;;;;;5052718;28;20239;-79
2021/11/10 12:55:49;;;;;;;0.50;0.40;;;11.70;99.90;;;;;;5052491;28;20556;-77
2021/11/10 12:58:19;;;;;;;0.50;0.40;;;11.90;99.90;;;;;;5052997;28;20190;-78